createdAt,value
2018-12-13T00:00:58.741Z,-12.42
2018-12-13T00:03:27.461Z,-12.43
2018-12-13T00:05:56.379Z,-12.43
2018-12-13T00:08:25.192Z,-12.43
2018-12-13T00:10:54.099Z,-12.47
2018-12-13T00:13:22.910Z,-12.48
2018-12-13T00:15:52.148Z,-12.50
2018-12-13T00:18:20.970Z,-12.52
2018-12-13T00:20:49.716Z,-12.56
2018-12-13T00:23:18.429Z,-12.58
2018-12-13T00:25:47.152Z,-12.65
2018-12-13T00:28:15.903Z,-12.70
2018-12-13T00:30:44.768Z,-12.74
2018-12-13T00:33:13.724Z,-12.77
2018-12-13T00:35:42.517Z,-12.81
2018-12-13T00:38:11.289Z,-12.81
2018-12-13T00:40:40.036Z,-12.83
2018-12-13T00:43:08.797Z,-12.82
2018-12-13T00:45:37.560Z,-12.85
2018-12-13T00:48:06.339Z,-12.84
2018-12-13T00:50:34.952Z,-12.87
2018-12-13T00:53:03.603Z,-12.90
2018-12-13T00:55:32.299Z,-12.88
2018-12-13T00:58:01.212Z,-12.87
2018-12-13T01:00:30.260Z,-12.89
2018-12-13T01:02:59.005Z,-12.92
2018-12-13T01:05:27.751Z,-12.95
2018-12-13T01:07:56.437Z,-12.96
2018-12-13T01:10:25.233Z,-12.95
2018-12-13T01:12:54.136Z,-12.93
2018-12-13T01:15:23.249Z,-12.88
2018-12-13T01:17:51.946Z,-12.88
2018-12-13T01:20:20.775Z,-12.89
2018-12-13T01:22:49.417Z,-12.91
2018-12-13T01:25:18.398Z,-12.87
2018-12-13T01:27:47.210Z,-12.85
2018-12-13T01:30:15.856Z,-12.86
2018-12-13T01:32:45.021Z,-12.86
2018-12-13T01:35:14.073Z,-12.92
2018-12-13T01:37:43.020Z,-12.92
2018-12-13T01:40:11.653Z,-13.00
2018-12-13T01:42:40.759Z,-13.01
2018-12-13T01:45:09.516Z,-13.03
2018-12-13T01:47:38.194Z,-13.06
2018-12-13T01:50:07.129Z,-13.10
2018-12-13T01:52:36.113Z,-13.08
2018-12-13T01:55:06.026Z,-13.10
2018-12-13T01:57:35.084Z,-13.13
2018-12-13T02:00:06.072Z,-13.14
2018-12-13T02:02:35.014Z,-13.14
2018-12-13T02:05:03.864Z,-13.10
2018-12-13T02:07:32.947Z,-12.92
2018-12-13T02:10:01.795Z,-12.84
2018-12-13T02:12:30.425Z,-12.82
2018-12-13T02:15:00.360Z,-12.83
2018-12-13T02:17:29.499Z,-12.82
2018-12-13T02:19:58.241Z,-12.81
2018-12-13T02:22:26.926Z,-12.83
2018-12-13T02:27:34.794Z,-12.84
2018-12-13T02:30:04.551Z,-12.91
2018-12-13T02:32:33.236Z,-12.91
2018-12-13T02:35:02.471Z,-12.92
2018-12-13T02:37:31.330Z,-12.93
2018-12-13T02:40:00.171Z,-12.95
2018-12-13T02:42:28.889Z,-12.97
2018-12-13T02:44:57.583Z,-13.06
2018-12-13T02:47:26.265Z,-13.08
2018-12-13T02:49:55.087Z,-13.13
2018-12-13T02:52:23.891Z,-13.16
2018-12-13T02:54:52.832Z,-13.18
2018-12-13T02:57:21.509Z,-13.21
2018-12-13T02:59:50.258Z,-13.24
2018-12-13T03:02:19.319Z,-13.27
2018-12-13T03:04:48.041Z,-13.28
2018-12-13T03:07:16.821Z,-13.28
2018-12-13T03:09:45.515Z,-13.28
2018-12-13T03:12:14.706Z,-13.28
2018-12-13T03:14:43.472Z,-13.31
2018-12-13T03:17:12.618Z,-13.32
2018-12-13T03:22:24.568Z,-13.32
2018-12-13T03:24:53.447Z,-13.31
2018-12-13T03:27:22.296Z,-13.31
2018-12-13T03:29:51.216Z,-13.30
2018-12-13T03:32:20.735Z,-13.30
2018-12-13T03:34:49.731Z,-13.31
2018-12-13T03:37:20.741Z,-13.31
2018-12-13T03:39:49.468Z,-13.32
2018-12-13T03:42:18.472Z,-13.32
2018-12-13T03:44:47.408Z,-13.31
2018-12-13T03:47:16.677Z,-13.30
2018-12-13T03:49:45.474Z,-13.32
2018-12-13T03:52:14.363Z,-13.31
2018-12-13T03:54:43.470Z,-13.31
2018-12-13T03:57:12.516Z,-13.29
2018-12-13T03:59:41.380Z,-13.29
2018-12-13T04:02:10.512Z,-13.62
2018-12-13T04:04:39.550Z,-13.36
2018-12-13T04:07:08.471Z,-13.35
2018-12-13T04:09:37.356Z,-13.41
2018-12-13T04:12:06.176Z,-13.38
2018-12-13T04:14:35.163Z,-13.38
2018-12-13T04:17:04.091Z,-13.38
2018-12-13T04:19:32.785Z,-13.41
2018-12-13T04:22:02.128Z,-13.44
2018-12-13T04:24:31.306Z,-13.45
2018-12-13T04:27:00.528Z,-13.46
2018-12-13T04:29:29.297Z,-13.46
2018-12-13T04:31:58.373Z,-13.45
2018-12-13T04:34:27.215Z,-13.45
2018-12-13T04:36:55.916Z,-13.44
2018-12-13T04:39:24.889Z,-13.46
2018-12-13T04:41:53.685Z,-13.47
2018-12-13T04:44:22.612Z,-13.48
2018-12-13T04:46:51.357Z,-13.48
2018-12-13T04:49:20.497Z,-13.54
2018-12-13T04:51:49.203Z,-13.57
2018-12-13T04:54:20.997Z,-13.60
2018-12-13T04:56:49.684Z,-13.62
2018-12-13T04:59:18.737Z,-13.66
2018-12-13T05:01:47.709Z,-13.64
2018-12-13T05:04:16.453Z,-13.67
2018-12-13T05:06:45.303Z,-13.72
2018-12-13T05:09:14.555Z,-13.75
2018-12-13T05:11:43.759Z,-13.74
2018-12-13T05:14:12.552Z,-13.76
2018-12-13T05:16:41.843Z,-13.74
2018-12-13T05:19:10.585Z,-13.77
2018-12-13T05:21:39.306Z,-13.81
2018-12-13T05:24:08.210Z,-13.88
2018-12-13T05:26:37.303Z,-13.89
2018-12-13T05:29:06.013Z,-13.92
2018-12-13T05:31:34.788Z,-13.94
2018-12-13T05:34:03.607Z,-13.96
2018-12-13T05:36:32.241Z,-13.97
2018-12-13T05:39:01.219Z,-13.96
2018-12-13T05:41:30.000Z,-13.95
2018-12-13T05:43:59.060Z,-14.00
2018-12-13T05:46:28.084Z,-14.04
2018-12-13T05:48:56.833Z,-14.06
2018-12-13T05:51:25.857Z,-14.09
2018-12-13T05:53:54.723Z,-14.12
2018-12-13T05:56:23.314Z,-14.17
2018-12-13T05:58:52.044Z,-14.21
2018-12-13T06:01:20.932Z,-14.19
2018-12-13T06:03:49.944Z,-14.15
2018-12-13T06:06:18.789Z,-14.16
2018-12-13T06:08:47.561Z,-14.20
2018-12-13T06:11:16.351Z,-14.21
2018-12-13T06:13:45.331Z,-14.22
2018-12-13T06:16:14.172Z,-14.27
2018-12-13T06:18:43.444Z,-14.25
2018-12-13T06:21:12.353Z,-14.31
2018-12-13T06:23:41.215Z,-14.29
2018-12-13T06:26:09.918Z,-14.30
2018-12-13T06:28:38.511Z,-14.29
2018-12-13T06:31:07.771Z,-14.29
2018-12-13T06:33:36.530Z,-14.26
2018-12-13T06:36:05.242Z,-14.30
2018-12-13T06:38:33.962Z,-14.30
2018-12-13T06:41:03.244Z,-14.33
2018-12-13T06:43:32.027Z,-14.35
2018-12-13T06:46:00.881Z,-14.36
2018-12-13T06:48:29.789Z,-14.37
2018-12-13T06:50:58.710Z,-14.33
2018-12-13T06:53:27.419Z,-14.33
2018-12-13T06:55:56.279Z,-14.31
2018-12-13T06:58:25.059Z,-14.30
2018-12-13T07:00:53.813Z,-14.29
2018-12-13T07:03:22.488Z,-14.29
2018-12-13T07:05:51.695Z,-14.30
2018-12-13T07:08:20.815Z,-14.31
2018-12-13T07:10:49.538Z,-14.31
2018-12-13T07:13:18.533Z,-14.30
2018-12-13T07:15:47.253Z,-14.29
2018-12-13T07:18:16.083Z,-14.28
2018-12-13T07:20:44.782Z,-14.28
2018-12-13T07:23:13.710Z,-14.26
2018-12-13T07:25:42.561Z,-14.24
2018-12-13T07:28:11.516Z,-14.20
2018-12-13T07:30:40.443Z,-14.20
2018-12-13T07:33:09.399Z,-14.15
2018-12-13T07:35:38.150Z,-14.14
2018-12-13T07:38:06.737Z,-14.15
2018-12-13T07:40:35.369Z,-14.16
2018-12-13T07:43:05.460Z,-14.17
2018-12-13T07:45:34.204Z,-14.16
2018-12-13T07:48:03.293Z,-14.15
2018-12-13T07:50:32.315Z,-14.13
2018-12-13T07:53:01.387Z,-14.13
2018-12-13T07:55:30.339Z,-14.11
2018-12-13T07:57:59.068Z,-14.08
2018-12-13T08:00:27.995Z,-14.11
2018-12-13T08:02:56.677Z,-14.08
2018-12-13T08:05:25.936Z,-14.07
2018-12-13T08:07:54.649Z,-14.03
2018-12-13T08:10:23.694Z,-14.02
2018-12-13T08:12:52.584Z,-14.02
2018-12-13T08:15:21.573Z,-13.99
2018-12-13T08:17:50.480Z,-14.02
2018-12-13T08:20:19.616Z,-14.00
2018-12-13T08:22:49.905Z,-14.02
2018-12-13T08:25:18.740Z,-14.04
2018-12-13T08:27:48.013Z,-14.03
2018-12-13T08:30:17.000Z,-14.03
2018-12-13T08:32:45.979Z,-14.03
2018-12-13T08:35:14.763Z,-14.01
2018-12-13T08:37:43.869Z,-13.98
2018-12-13T08:40:12.752Z,-14.01
2018-12-13T08:42:41.479Z,-14.01
2018-12-13T08:45:10.453Z,-13.99
2018-12-13T08:47:39.409Z,-13.96
2018-12-13T08:50:08.515Z,-13.92
2018-12-13T08:52:37.588Z,-13.90
2018-12-13T08:55:06.866Z,-13.88
2018-12-13T08:57:35.543Z,-13.83
2018-12-13T09:00:04.751Z,-13.81
2018-12-13T09:02:33.852Z,-13.79
2018-12-13T09:05:03.280Z,-13.76
2018-12-13T09:07:32.571Z,-13.74
2018-12-13T09:10:01.579Z,-13.72
2018-12-13T09:12:30.296Z,-13.69
2018-12-13T09:14:59.418Z,-13.67
2018-12-13T09:17:28.494Z,-13.68
2018-12-13T09:19:57.352Z,-13.63
2018-12-13T09:22:26.732Z,-13.64
2018-12-13T09:24:55.388Z,-13.62
2018-12-13T09:27:24.456Z,-13.58
2018-12-13T09:29:54.460Z,-13.57
2018-12-13T09:32:23.326Z,-13.57
2018-12-13T09:34:52.405Z,-13.55
2018-12-13T09:37:21.308Z,-13.48
2018-12-13T09:39:50.125Z,-13.38
2018-12-13T09:42:18.902Z,-13.29
2018-12-13T09:44:47.518Z,-13.24
2018-12-13T09:47:16.631Z,-13.19
2018-12-13T09:49:45.631Z,-13.15
2018-12-13T09:52:14.725Z,-13.10
2018-12-13T09:54:43.488Z,-13.09
2018-12-13T09:57:12.391Z,-13.02
2018-12-13T09:59:41.223Z,-13.00
2018-12-13T10:02:10.045Z,-12.93
2018-12-13T10:04:38.973Z,-12.85
2018-12-13T10:07:07.901Z,-12.81
2018-12-13T10:09:36.905Z,-12.81
2018-12-13T10:12:05.996Z,-12.81
2018-12-13T10:14:35.046Z,-12.82
2018-12-13T10:17:03.932Z,-12.82
2018-12-13T10:19:32.775Z,-12.83
2018-12-13T10:22:02.130Z,-12.82
2018-12-13T10:24:31.145Z,-12.82
2018-12-13T10:27:00.048Z,-12.80
2018-12-13T10:29:29.552Z,-12.80
2018-12-13T10:31:58.897Z,-12.81
2018-12-13T10:34:27.715Z,-12.79
2018-12-13T10:36:56.634Z,-12.76
2018-12-13T10:39:25.365Z,-12.75
2018-12-13T10:41:54.228Z,-12.74
2018-12-13T10:44:28.303Z,-12.71
2018-12-13T10:46:57.165Z,-12.65
2018-12-13T10:49:26.169Z,-12.59
2018-12-13T10:51:55.342Z,-12.52
2018-12-13T10:54:24.830Z,-12.50
2018-12-13T10:56:54.555Z,-12.47
2018-12-13T10:59:23.993Z,-12.48
2018-12-13T11:01:57.955Z,-12.48
2018-12-13T11:04:27.235Z,-12.46
2018-12-13T11:06:55.952Z,-12.45
2018-12-13T11:09:24.675Z,-12.42
2018-12-13T11:11:53.842Z,-12.43
2018-12-13T11:14:22.569Z,-12.43
2018-12-13T11:16:51.509Z,-12.42
2018-12-13T11:19:20.389Z,-12.40
2018-12-13T11:21:49.588Z,-12.44
2018-12-13T11:24:18.601Z,-12.43
2018-12-13T11:26:47.538Z,-13.88
2018-12-13T11:30:25.484Z,-12.48
2018-12-13T11:32:54.593Z,-12.56
2018-12-13T11:35:23.313Z,-12.57
2018-12-13T11:37:52.378Z,-12.59
2018-12-13T11:40:21.593Z,-12.57
2018-12-13T11:42:50.268Z,-12.58
2018-12-13T11:45:19.282Z,-12.59
2018-12-13T11:47:48.002Z,-12.57
2018-12-13T11:50:17.048Z,-12.55
2018-12-13T11:52:47.080Z,-12.53
2018-12-13T11:55:39.337Z,-12.51
2018-12-13T11:58:12.660Z,-12.49
2018-12-13T12:00:41.849Z,-12.51
2018-12-13T12:03:10.637Z,-12.51
2018-12-13T12:05:40.473Z,-12.48
2018-12-13T12:08:09.728Z,-12.47
2018-12-13T12:10:38.499Z,-12.45
2018-12-13T12:13:07.879Z,-12.43
2018-12-13T12:15:36.627Z,-12.45
2018-12-13T12:18:05.521Z,-12.45
2018-12-13T12:20:34.409Z,-12.47
2018-12-13T12:23:03.365Z,-12.46
2018-12-13T12:25:32.262Z,-12.46
2018-12-13T12:28:01.267Z,-12.46
2018-12-13T12:30:30.335Z,-12.49
2018-12-13T12:32:59.959Z,-12.47
2018-12-13T12:35:28.809Z,-12.50
2018-12-13T12:37:57.603Z,-12.53
2018-12-13T12:40:26.388Z,-12.54
2018-12-13T12:42:55.336Z,-12.57
2018-12-13T12:45:24.537Z,-12.56
2018-12-13T12:47:53.659Z,-12.55
2018-12-13T12:50:22.809Z,-12.52
2018-12-13T12:52:51.604Z,-12.53
2018-12-13T12:55:20.621Z,-12.55
2018-12-13T12:57:49.406Z,-12.57
2018-12-13T13:00:18.552Z,-12.61
2018-12-13T13:02:49.026Z,-12.64
2018-12-13T13:05:18.098Z,-12.69
2018-12-13T13:07:47.006Z,-12.69
2018-12-13T13:10:16.015Z,-12.67
2018-12-13T13:12:45.204Z,-12.59
2018-12-13T13:15:14.057Z,-12.55
2018-12-13T13:17:43.139Z,-12.51
2018-12-13T13:20:11.878Z,-12.45
2018-12-13T13:22:40.766Z,-12.37
2018-12-13T13:25:09.774Z,-12.33
2018-12-13T13:27:39.144Z,-12.27
2018-12-13T13:30:08.189Z,-12.29
2018-12-13T13:32:37.055Z,-12.32
2018-12-13T13:35:06.068Z,-12.32
2018-12-13T13:37:34.946Z,-12.34
2018-12-13T13:40:04.170Z,-12.36
2018-12-13T13:42:32.951Z,-12.37
2018-12-13T13:45:03.310Z,-12.36
2018-12-13T13:47:32.011Z,-12.38
2018-12-13T13:50:00.757Z,-12.32
2018-12-13T13:52:29.545Z,-12.25
2018-12-13T13:54:58.304Z,-12.20
2018-12-13T13:57:26.946Z,-12.21
2018-12-13T13:59:55.637Z,-12.20
2018-12-13T14:02:24.380Z,-12.19
2018-12-13T14:04:53.228Z,-12.19
2018-12-13T14:07:22.148Z,-12.20
2018-12-13T14:09:51.175Z,-12.18
2018-12-13T14:12:19.854Z,-12.21
2018-12-13T14:14:48.662Z,-12.26
2018-12-13T14:17:17.824Z,-12.30
2018-12-13T14:19:46.798Z,-12.32
2018-12-13T14:22:15.522Z,-12.34
2018-12-13T14:24:44.633Z,-12.36
2018-12-13T14:27:14.392Z,-12.37
2018-12-13T14:29:43.120Z,-12.36
2018-12-13T14:32:11.845Z,-12.37
2018-12-13T14:34:40.552Z,-12.36
2018-12-13T14:37:09.457Z,-12.39
2018-12-13T14:39:44.222Z,-12.42
2018-12-13T14:42:09.294Z,-12.43
2018-12-13T14:44:38.424Z,-12.45
2018-12-13T14:47:07.994Z,-12.43
2018-12-13T14:49:36.975Z,-12.39
2018-12-13T14:52:06.168Z,-12.37
2018-12-13T14:54:35.369Z,-12.37
2018-12-13T14:57:04.490Z,-12.42
2018-12-13T14:59:33.558Z,-12.43
2018-12-13T15:02:03.074Z,-12.42
2018-12-13T15:04:32.084Z,-12.40
2018-12-13T15:07:02.204Z,-12.40
2018-12-13T15:09:31.122Z,-12.39
2018-12-13T15:12:00.103Z,-12.41
2018-12-13T15:14:29.607Z,-12.42
2018-12-13T15:16:58.318Z,-12.41
2018-12-13T15:19:27.080Z,-12.37
2018-12-13T15:21:56.289Z,-12.35
2018-12-13T15:24:25.217Z,-12.33
2018-12-13T15:26:55.312Z,-12.34
2018-12-13T15:29:24.484Z,-12.32
2018-12-13T15:31:59.279Z,-12.29
2018-12-13T15:34:25.427Z,-12.27
2018-12-13T15:36:55.545Z,-12.30
2018-12-13T15:39:24.574Z,-12.27
2018-12-13T15:41:54.409Z,-12.24
2018-12-13T15:44:24.119Z,-12.26
2018-12-13T15:46:54.063Z,-12.27
2018-12-13T15:49:24.946Z,-12.20
2018-12-13T15:51:54.797Z,-12.19
2018-12-13T15:54:23.827Z,-12.17
2018-12-13T15:56:53.803Z,-12.15
2018-12-13T15:59:22.973Z,-12.18
2018-12-13T16:01:52.621Z,-12.21
2018-12-13T16:04:21.964Z,-12.26
2018-12-13T16:06:51.320Z,-12.33
2018-12-13T16:09:20.353Z,-12.37
2018-12-13T16:11:49.971Z,-12.41
2018-12-13T16:14:19.681Z,-12.44
2018-12-13T16:16:48.658Z,-12.44
2018-12-13T16:19:18.013Z,-12.44
2018-12-13T16:21:47.435Z,-12.45
2018-12-13T16:24:16.409Z,-12.41
2018-12-13T16:26:45.519Z,-12.39
2018-12-13T16:29:14.788Z,-12.40
2018-12-13T16:31:44.180Z,-12.42
2018-12-13T16:34:12.894Z,-12.43
2018-12-13T16:36:41.852Z,-12.43
2018-12-13T16:39:10.785Z,-12.40
2018-12-13T16:41:39.887Z,-12.39
2018-12-13T16:44:10.233Z,-12.41
2018-12-13T16:46:39.521Z,-12.66
2018-12-13T16:49:08.585Z,-12.47
2018-12-13T16:51:37.275Z,-12.47
2018-12-13T16:54:06.108Z,-12.46
2018-12-13T16:56:35.369Z,-12.73
2018-12-13T16:59:04.822Z,-12.51
2018-12-13T17:01:33.907Z,-12.51
2018-12-13T17:04:02.913Z,-12.48
2018-12-13T17:06:31.765Z,-12.47
2018-12-13T17:09:00.900Z,-12.49
2018-12-13T17:11:29.626Z,-12.55
2018-12-13T17:13:58.296Z,-12.59
2018-12-13T17:16:27.227Z,-12.63
2018-12-13T17:18:56.164Z,-12.64
2018-12-13T17:21:25.071Z,-12.64
2018-12-13T17:23:54.092Z,-12.63
2018-12-13T17:26:23.047Z,-12.64
2018-12-13T17:28:52.236Z,-12.67
2018-12-13T17:31:21.452Z,-12.69
2018-12-13T17:33:50.357Z,-12.70
2018-12-13T17:36:19.134Z,-12.72
2018-12-13T17:38:48.085Z,-12.74
2018-12-13T17:41:16.964Z,-12.74
2018-12-13T17:43:45.842Z,-12.71
2018-12-13T17:46:14.494Z,-12.68
2018-12-13T17:48:43.507Z,-12.71
2018-12-13T17:51:12.407Z,-12.76
2018-12-13T17:53:41.418Z,-12.81
2018-12-13T17:56:10.801Z,-12.83
2018-12-13T17:58:40.280Z,-12.89
2018-12-13T18:01:09.150Z,-12.91
2018-12-13T18:03:38.255Z,-12.92
2018-12-13T18:06:07.133Z,-12.92
2018-12-13T18:08:35.979Z,-12.90
2018-12-13T18:11:04.812Z,-12.83
2018-12-13T18:13:33.657Z,-12.81
2018-12-13T18:16:02.927Z,-12.81
2018-12-13T18:18:31.678Z,-12.82
2018-12-13T18:21:01.200Z,-12.85
2018-12-13T18:23:30.428Z,-12.86
2018-12-13T18:25:59.189Z,-12.86
2018-12-13T18:28:28.597Z,-12.84
2018-12-13T18:30:57.385Z,-12.81
2018-12-13T18:33:25.990Z,-12.79
2018-12-13T18:35:54.739Z,-12.77
2018-12-13T18:38:23.854Z,-12.77
2018-12-13T18:40:53.023Z,-12.75
2018-12-13T18:43:21.804Z,-12.72
2018-12-13T18:45:50.565Z,-12.71
2018-12-13T18:48:19.357Z,-12.71
2018-12-13T18:50:48.136Z,-12.71
2018-12-13T18:53:16.737Z,-12.71
2018-12-13T18:55:45.496Z,-12.78
2018-12-13T18:58:14.554Z,-12.77
2018-12-13T19:00:43.358Z,-12.76
2018-12-13T19:03:12.539Z,-12.76
2018-12-13T19:05:41.701Z,-12.77
2018-12-13T19:08:11.624Z,-12.81
2018-12-13T19:10:42.011Z,-12.81
2018-12-13T19:13:11.188Z,-12.83
2018-12-13T19:15:40.171Z,-12.82
2018-12-13T19:18:09.167Z,-12.85
2018-12-13T19:20:38.346Z,-12.89
2018-12-13T19:23:07.562Z,-12.95
2018-12-13T19:25:36.282Z,-12.96
2018-12-13T19:28:05.214Z,-12.94
2018-12-13T19:30:34.493Z,-12.92
2018-12-13T19:33:03.267Z,-12.93
2018-12-13T19:35:31.892Z,-12.96
2018-12-13T19:38:01.164Z,-12.98
2018-12-13T19:40:30.938Z,-13.00
2018-12-13T19:42:59.781Z,-12.96
2018-12-13T19:45:29.024Z,-12.96
2018-12-13T19:47:58.139Z,-12.92
2018-12-13T19:50:26.919Z,-12.88
2018-12-13T19:52:55.741Z,-12.89
2018-12-13T19:55:24.630Z,-12.91
2018-12-13T19:57:53.440Z,-12.89
2018-12-13T20:00:22.330Z,-12.88
2018-12-13T20:02:52.439Z,-12.88
2018-12-13T20:05:21.716Z,-12.92
2018-12-13T20:07:50.907Z,-12.91
2018-12-13T20:14:04.024Z,-13.00
2018-12-13T20:16:34.323Z,-13.04
2018-12-13T20:19:05.220Z,-13.05
2018-12-13T20:21:34.867Z,-13.04
2018-12-13T20:24:04.196Z,-13.01
2018-12-13T20:26:33.480Z,-12.97
2018-12-13T20:29:02.941Z,-12.91
2018-12-13T20:31:32.514Z,-12.89
2018-12-13T20:34:01.859Z,-12.91
2018-12-13T20:36:31.339Z,-12.96
2018-12-13T20:39:01.390Z,-13.00
2018-12-13T20:41:30.410Z,-13.04
2018-12-13T20:43:59.990Z,-13.06
2018-12-13T20:46:29.457Z,-13.12
2018-12-13T20:48:59.026Z,-13.47
2018-12-13T20:51:28.593Z,-13.14
2018-12-13T20:53:57.915Z,-13.17
2018-12-13T20:56:27.103Z,-13.18
2018-12-13T20:58:56.409Z,-13.18
2018-12-13T21:01:25.507Z,-13.15
2018-12-13T21:03:55.720Z,-13.14
2018-12-13T21:06:25.062Z,-13.12
2018-12-13T21:08:54.114Z,-13.13
2018-12-13T21:11:23.779Z,-13.10
2018-12-13T21:13:53.891Z,-13.13
2018-12-13T21:16:24.251Z,-13.13
2018-12-13T21:18:53.727Z,-13.14
2018-12-13T21:21:23.399Z,-13.13
2018-12-13T21:23:52.896Z,-13.14
2018-12-13T21:26:22.250Z,-13.14
2018-12-13T21:28:51.342Z,-13.10
2018-12-13T21:31:20.155Z,-13.10
2018-12-13T21:33:49.356Z,-13.14
2018-12-13T21:36:18.090Z,-13.14
2018-12-13T21:38:47.047Z,-13.17
2018-12-13T21:41:16.053Z,-13.19
2018-12-13T21:43:44.908Z,-13.20
2018-12-13T21:46:13.825Z,-13.21
2018-12-13T21:48:42.479Z,-13.18
2018-12-13T21:51:11.587Z,-13.20
2018-12-13T21:53:40.570Z,-13.20
2018-12-13T21:56:09.809Z,-13.21
2018-12-13T21:58:38.458Z,-13.22
2018-12-13T22:01:07.278Z,-13.23
2018-12-13T22:03:36.423Z,-13.27
2018-12-13T22:06:05.098Z,-13.29
2018-12-13T22:08:34.201Z,-13.28
2018-12-13T22:11:03.033Z,-13.30
2018-12-13T22:13:31.927Z,-13.34
2018-12-13T22:16:01.248Z,-13.35
2018-12-13T22:18:29.891Z,-13.38
2018-12-13T22:20:58.767Z,-13.39
2018-12-13T22:23:28.166Z,-13.40
2018-12-13T22:25:57.804Z,-13.41
2018-12-13T22:28:27.563Z,-13.45
2018-12-13T22:30:56.528Z,-13.47
2018-12-13T22:33:25.460Z,-13.47
2018-12-13T22:35:54.357Z,-13.71
2018-12-13T22:38:23.123Z,-13.50
2018-12-13T22:40:52.086Z,-13.52
2018-12-13T22:43:21.225Z,-13.51
2018-12-13T22:45:50.188Z,-13.52
2018-12-13T22:48:19.363Z,-13.54
2018-12-13T22:50:48.498Z,-13.58
2018-12-13T22:53:17.803Z,-13.60
2018-12-13T22:55:46.467Z,-13.62
2018-12-13T22:58:15.243Z,-13.62
2018-12-13T23:00:44.354Z,-13.62
2018-12-13T23:03:13.483Z,-13.60
2018-12-13T23:05:42.531Z,-13.60
2018-12-13T23:08:11.211Z,-13.60
2018-12-13T23:10:39.903Z,-13.58
2018-12-13T23:14:20.526Z,-13.59
2018-12-13T23:16:49.326Z,-13.59
2018-12-13T23:19:18.243Z,-13.63
2018-12-13T23:21:47.067Z,-13.66
2018-12-13T23:24:15.875Z,-13.70
2018-12-13T23:26:44.496Z,-13.71
2018-12-13T23:29:13.443Z,-13.73
2018-12-13T23:31:42.256Z,-13.78
2018-12-13T23:34:11.320Z,-13.80
2018-12-13T23:36:40.156Z,-13.88
2018-12-13T23:39:09.146Z,-13.94
2018-12-13T23:41:39.345Z,-14.21
2018-12-13T23:44:08.640Z,-13.99
2018-12-13T23:46:37.666Z,-14.00
2018-12-13T23:49:06.584Z,-14.00
2018-12-13T23:51:35.273Z,-14.00
2018-12-13T23:54:04.232Z,-13.98
2018-12-13T23:56:33.061Z,-13.95
2018-12-13T23:59:02.309Z,-13.93
